sensor_id;sensor_type;location;lat;lon;timestamp;P1;durP1;ratioP1;P2;durP2;ratioP2
80778;SDS011;70170;47.856;10.956;2023-09-30T00:02:20;31.73;;;10.30;;
80778;SDS011;70170;47.856;10.956;2023-09-30T00:04:45;29.77;;;11.00;;
80778;SDS011;70170;47.856;10.956;2023-09-30T00:07:10;40.75;;;11.25;;
80778;SDS011;70170;47.856;10.956;2023-09-30T00:09:36;33.22;;;11.13;;
80778;SDS011;70170;47.856;10.956;2023-09-30T00:12:01;36.50;;;10.73;;
80778;SDS011;70170;47.856;10.956;2023-09-30T00:14:26;30.02;;;10.13;;
80778;SDS011;70170;47.856;10.956;2023-09-30T00:16:52;34.15;;;11.00;;
80778;SDS011;70170;47.856;10.956;2023-09-30T00:19:17;30.50;;;9.57;;
80778;SDS011;70170;47.856;10.956;2023-09-30T00:21:42;26.92;;;10.38;;
80778;SDS011;70170;47.856;10.956;2023-09-30T00:24:08;29.05;;;10.85;;
80778;SDS011;70170;47.856;10.956;2023-09-30T00:26:34;29.58;;;11.27;;
80778;SDS011;70170;47.856;10.956;2023-09-30T00:28:59;31.85;;;11.40;;
80778;SDS011;70170;47.856;10.956;2023-09-30T00:31:25;26.17;;;10.10;;
80778;SDS011;70170;47.856;10.956;2023-09-30T00:33:50;34.45;;;11.30;;
80778;SDS011;70170;47.856;10.956;2023-09-30T00:36:15;33.60;;;11.07;;
80778;SDS011;70170;47.856;10.956;2023-09-30T00:38:41;27.20;;;10.23;;
80778;SDS011;70170;47.856;10.956;2023-09-30T00:41:06;30.67;;;10.75;;
80778;SDS011;70170;47.856;10.956;2023-09-30T00:43:32;28.48;;;10.60;;
80778;SDS011;70170;47.856;10.956;2023-09-30T00:46:02;30.23;;;10.23;;
80778;SDS011;70170;47.856;10.956;2023-09-30T00:48:36;33.20;;;10.38;;
80778;SDS011;70170;47.856;10.956;2023-09-30T00:51:02;32.47;;;10.85;;
80778;SDS011;70170;47.856;10.956;2023-09-30T00:53:28;27.10;;;10.05;;
80778;SDS011;70170;47.856;10.956;2023-09-30T00:55:54;35.53;;;11.52;;
80778;SDS011;70170;47.856;10.956;2023-09-30T00:58:21;33.45;;;10.73;;
80778;SDS011;70170;47.856;10.956;2023-09-30T01:00:48;33.78;;;10.38;;
80778;SDS011;70170;47.856;10.956;2023-09-30T01:03:14;35.10;;;9.85;;
80778;SDS011;70170;47.856;10.956;2023-09-30T01:05:39;29.70;;;10.00;;
80778;SDS011;70170;47.856;10.956;2023-09-30T01:08:05;28.90;;;10.75;;
80778;SDS011;70170;47.856;10.956;2023-09-30T01:10:30;30.75;;;10.35;;
80778;SDS011;70170;47.856;10.956;2023-09-30T01:12:55;30.23;;;10.35;;
80778;SDS011;70170;47.856;10.956;2023-09-30T01:15:21;23.95;;;9.85;;
80778;SDS011;70170;47.856;10.956;2023-09-30T01:17:46;26.17;;;9.57;;
80778;SDS011;70170;47.856;10.956;2023-09-30T01:20:12;34.53;;;10.50;;
80778;SDS011;70170;47.856;10.956;2023-09-30T01:22:41;24.73;;;9.73;;
80778;SDS011;70170;47.856;10.956;2023-09-30T01:25:07;31.25;;;10.05;;
80778;SDS011;70170;47.856;10.956;2023-09-30T01:27:34;24.38;;;9.70;;
80778;SDS011;70170;47.856;10.956;2023-09-30T01:30:00;28.77;;;10.85;;
80778;SDS011;70170;47.856;10.956;2023-09-30T01:32:25;26.75;;;9.55;;
80778;SDS011;70170;47.856;10.956;2023-09-30T01:34:51;34.42;;;11.13;;
80778;SDS011;70170;47.856;10.956;2023-09-30T01:37:17;27.83;;;10.15;;
80778;SDS011;70170;47.856;10.956;2023-09-30T01:39:42;23.45;;;9.10;;
80778;SDS011;70170;47.856;10.956;2023-09-30T01:42:09;32.00;;;10.38;;
80778;SDS011;70170;47.856;10.956;2023-09-30T01:44:35;27.73;;;10.27;;
80778;SDS011;70170;47.856;10.956;2023-09-30T01:47:00;32.53;;;9.85;;
80778;SDS011;70170;47.856;10.956;2023-09-30T01:49:26;28.65;;;10.18;;
80778;SDS011;70170;47.856;10.956;2023-09-30T01:51:51;33.90;;;9.77;;
80778;SDS011;70170;47.856;10.956;2023-09-30T01:54:16;27.10;;;9.77;;
80778;SDS011;70170;47.856;10.956;2023-09-30T01:56:42;23.85;;;9.32;;
80778;SDS011;70170;47.856;10.956;2023-09-30T01:59:07;26.77;;;9.25;;
80778;SDS011;70170;47.856;10.956;2023-09-30T02:01:32;25.52;;;9.18;;
80778;SDS011;70170;47.856;10.956;2023-09-30T02:03:58;29.33;;;10.43;;
80778;SDS011;70170;47.856;10.956;2023-09-30T02:06:23;25.85;;;10.07;;
80778;SDS011;70170;47.856;10.956;2023-09-30T02:08:48;24.65;;;9.82;;
80778;SDS011;70170;47.856;10.956;2023-09-30T02:11:14;27.50;;;9.70;;
80778;SDS011;70170;47.856;10.956;2023-09-30T02:13:40;26.10;;;9.48;;
80778;SDS011;70170;47.856;10.956;2023-09-30T02:16:06;22.00;;;9.50;;
80778;SDS011;70170;47.856;10.956;2023-09-30T02:18:36;26.33;;;10.32;;
80778;SDS011;70170;47.856;10.956;2023-09-30T02:21:02;34.38;;;9.50;;
80778;SDS011;70170;47.856;10.956;2023-09-30T02:23:29;25.83;;;10.10;;
80778;SDS011;70170;47.856;10.956;2023-09-30T02:25:54;31.48;;;9.23;;
80778;SDS011;70170;47.856;10.956;2023-09-30T02:28:20;28.67;;;9.80;;
80778;SDS011;70170;47.856;10.956;2023-09-30T02:30:45;25.58;;;9.05;;
80778;SDS011;70170;47.856;10.956;2023-09-30T02:33:10;26.20;;;9.90;;
80778;SDS011;70170;47.856;10.956;2023-09-30T02:35:36;27.27;;;8.35;;
80778;SDS011;70170;47.856;10.956;2023-09-30T02:38:03;27.33;;;10.20;;
80778;SDS011;70170;47.856;10.956;2023-09-30T02:40:29;26.17;;;8.45;;
80778;SDS011;70170;47.856;10.956;2023-09-30T02:42:54;24.20;;;8.68;;
80778;SDS011;70170;47.856;10.956;2023-09-30T02:45:19;25.35;;;9.15;;
80778;SDS011;70170;47.856;10.956;2023-09-30T02:47:45;23.98;;;8.48;;
80778;SDS011;70170;47.856;10.956;2023-09-30T02:50:11;23.75;;;8.90;;
80778;SDS011;70170;47.856;10.956;2023-09-30T02:52:37;25.98;;;8.82;;
80778;SDS011;70170;47.856;10.956;2023-09-30T02:55:05;21.83;;;8.88;;
80778;SDS011;70170;47.856;10.956;2023-09-30T02:57:34;18.20;;;7.70;;
80778;SDS011;70170;47.856;10.956;2023-09-30T03:00:01;21.73;;;9.38;;
80778;SDS011;70170;47.856;10.956;2023-09-30T03:02:48;21.52;;;8.23;;
80778;SDS011;70170;47.856;10.956;2023-09-30T03:05:15;25.10;;;9.18;;
80778;SDS011;70170;47.856;10.956;2023-09-30T03:07:40;22.55;;;8.77;;
80778;SDS011;70170;47.856;10.956;2023-09-30T03:10:06;28.08;;;9.18;;
80778;SDS011;70170;47.856;10.956;2023-09-30T03:12:33;24.73;;;8.68;;
80778;SDS011;70170;47.856;10.956;2023-09-30T03:14:59;20.88;;;8.30;;
80778;SDS011;70170;47.856;10.956;2023-09-30T03:17:29;27.77;;;8.68;;
80778;SDS011;70170;47.856;10.956;2023-09-30T03:19:54;22.08;;;8.05;;
80778;SDS011;70170;47.856;10.956;2023-09-30T03:22:22;24.23;;;9.27;;
80778;SDS011;70170;47.856;10.956;2023-09-30T03:24:47;24.55;;;8.57;;
80778;SDS011;70170;47.856;10.956;2023-09-30T03:27:12;20.83;;;7.75;;
80778;SDS011;70170;47.856;10.956;2023-09-30T03:29:39;27.58;;;9.35;;
80778;SDS011;70170;47.856;10.956;2023-09-30T03:32:06;24.13;;;7.43;;
80778;SDS011;70170;47.856;10.956;2023-09-30T03:34:31;22.70;;;8.68;;
80778;SDS011;70170;47.856;10.956;2023-09-30T03:36:56;19.85;;;7.60;;
80778;SDS011;70170;47.856;10.956;2023-09-30T03:39:23;18.27;;;7.97;;
80778;SDS011;70170;47.856;10.956;2023-09-30T03:41:52;21.98;;;8.18;;
80778;SDS011;70170;47.856;10.956;2023-09-30T03:44:21;23.42;;;8.40;;
80778;SDS011;70170;47.856;10.956;2023-09-30T03:46:48;19.95;;;7.80;;
80778;SDS011;70170;47.856;10.956;2023-09-30T03:49:13;21.63;;;7.57;;
80778;SDS011;70170;47.856;10.956;2023-09-30T03:51:38;24.58;;;7.97;;
80778;SDS011;70170;47.856;10.956;2023-09-30T03:54:04;21.85;;;8.02;;
80778;SDS011;70170;47.856;10.956;2023-09-30T03:56:31;21.70;;;7.63;;
80778;SDS011;70170;47.856;10.956;2023-09-30T03:58:56;20.85;;;8.15;;
80778;SDS011;70170;47.856;10.956;2023-09-30T04:01:21;25.92;;;8.85;;
80778;SDS011;70170;47.856;10.956;2023-09-30T04:03:48;20.00;;;8.27;;
80778;SDS011;70170;47.856;10.956;2023-09-30T04:06:14;22.20;;;7.50;;
80778;SDS011;70170;47.856;10.956;2023-09-30T04:08:39;18.25;;;6.82;;
80778;SDS011;70170;47.856;10.956;2023-09-30T04:11:05;23.35;;;7.55;;
80778;SDS011;70170;47.856;10.956;2023-09-30T04:13:31;17.50;;;6.75;;
80778;SDS011;70170;47.856;10.956;2023-09-30T04:15:56;24.98;;;7.97;;
80778;SDS011;70170;47.856;10.956;2023-09-30T04:18:25;18.45;;;8.15;;
80778;SDS011;70170;47.856;10.956;2023-09-30T04:20:54;21.55;;;7.88;;
80778;SDS011;70170;47.856;10.956;2023-09-30T04:23:19;24.13;;;7.80;;
80778;SDS011;70170;47.856;10.956;2023-09-30T04:25:47;18.85;;;6.85;;
80778;SDS011;70170;47.856;10.956;2023-09-30T04:28:13;16.60;;;6.57;;
80778;SDS011;70170;47.856;10.956;2023-09-30T04:30:39;15.60;;;6.70;;
80778;SDS011;70170;47.856;10.956;2023-09-30T04:33:04;18.80;;;6.45;;
80778;SDS011;70170;47.856;10.956;2023-09-30T04:35:30;18.08;;;6.63;;
80778;SDS011;70170;47.856;10.956;2023-09-30T04:37:56;15.13;;;5.95;;
80778;SDS011;70170;47.856;10.956;2023-09-30T04:40:22;18.77;;;6.57;;
80778;SDS011;70170;47.856;10.956;2023-09-30T04:42:48;17.75;;;6.75;;
80778;SDS011;70170;47.856;10.956;2023-09-30T04:45:13;17.33;;;6.53;;
80778;SDS011;70170;47.856;10.956;2023-09-30T04:47:45;18.08;;;6.20;;
80778;SDS011;70170;47.856;10.956;2023-09-30T04:50:10;19.17;;;6.63;;
80778;SDS011;70170;47.856;10.956;2023-09-30T04:52:36;17.45;;;6.63;;
80778;SDS011;70170;47.856;10.956;2023-09-30T04:55:03;19.52;;;6.18;;
80778;SDS011;70170;47.856;10.956;2023-09-30T04:57:29;16.77;;;6.75;;
80778;SDS011;70170;47.856;10.956;2023-09-30T04:59:55;21.88;;;6.30;;
80778;SDS011;70170;47.856;10.956;2023-09-30T05:02:20;18.15;;;5.68;;
80778;SDS011;70170;47.856;10.956;2023-09-30T05:04:47;18.25;;;6.93;;
80778;SDS011;70170;47.856;10.956;2023-09-30T05:07:12;18.20;;;6.57;;
80778;SDS011;70170;47.856;10.956;2023-09-30T05:09:38;19.15;;;6.80;;
80778;SDS011;70170;47.856;10.956;2023-09-30T05:12:04;13.73;;;5.40;;
80778;SDS011;70170;47.856;10.956;2023-09-30T05:14:29;14.77;;;6.35;;
80778;SDS011;70170;47.856;10.956;2023-09-30T05:16:54;15.88;;;6.35;;
80778;SDS011;70170;47.856;10.956;2023-09-30T05:19:21;15.55;;;6.32;;
80778;SDS011;70170;47.856;10.956;2023-09-30T05:21:47;14.55;;;6.22;;
80778;SDS011;70170;47.856;10.956;2023-09-30T05:24:12;19.10;;;6.93;;
80778;SDS011;70170;47.856;10.956;2023-09-30T05:26:37;15.43;;;6.00;;
80778;SDS011;70170;47.856;10.956;2023-09-30T05:29:03;20.17;;;6.25;;
80778;SDS011;70170;47.856;10.956;2023-09-30T05:31:28;19.88;;;7.10;;
80778;SDS011;70170;47.856;10.956;2023-09-30T05:33:54;20.00;;;5.93;;
80778;SDS011;70170;47.856;10.956;2023-09-30T05:36:20;17.27;;;6.65;;
80778;SDS011;70170;47.856;10.956;2023-09-30T05:38:45;17.00;;;6.07;;
80778;SDS011;70170;47.856;10.956;2023-09-30T05:41:13;14.88;;;6.28;;
80778;SDS011;70170;47.856;10.956;2023-09-30T05:43:39;20.95;;;7.13;;
80778;SDS011;70170;47.856;10.956;2023-09-30T05:46:06;14.77;;;5.93;;
80778;SDS011;70170;47.856;10.956;2023-09-30T05:48:31;18.30;;;6.60;;
80778;SDS011;70170;47.856;10.956;2023-09-30T05:50:57;16.63;;;6.47;;
80778;SDS011;70170;47.856;10.956;2023-09-30T05:53:22;24.90;;;6.68;;
80778;SDS011;70170;47.856;10.956;2023-09-30T05:55:47;20.55;;;6.57;;
80778;SDS011;70170;47.856;10.956;2023-09-30T05:58:13;16.30;;;6.03;;
80778;SDS011;70170;47.856;10.956;2023-09-30T06:00:41;15.93;;;5.93;;
80778;SDS011;70170;47.856;10.956;2023-09-30T06:03:07;17.90;;;6.60;;
80778;SDS011;70170;47.856;10.956;2023-09-30T06:05:33;14.73;;;5.95;;
80778;SDS011;70170;47.856;10.956;2023-09-30T06:08:03;17.17;;;6.47;;
80778;SDS011;70170;47.856;10.956;2023-09-30T06:10:29;19.90;;;6.35;;
80778;SDS011;70170;47.856;10.956;2023-09-30T06:12:54;13.30;;;5.85;;
80778;SDS011;70170;47.856;10.956;2023-09-30T06:15:22;15.95;;;5.85;;
80778;SDS011;70170;47.856;10.956;2023-09-30T06:17:50;26.13;;;6.38;;
80778;SDS011;70170;47.856;10.956;2023-09-30T06:20:17;16.40;;;6.00;;
80778;SDS011;70170;47.856;10.956;2023-09-30T06:22:43;18.13;;;6.15;;
80778;SDS011;70170;47.856;10.956;2023-09-30T06:25:14;18.83;;;6.63;;
80778;SDS011;70170;47.856;10.956;2023-09-30T06:27:42;16.02;;;6.05;;
80778;SDS011;70170;47.856;10.956;2023-09-30T06:30:11;16.60;;;5.90;;
80778;SDS011;70170;47.856;10.956;2023-09-30T06:32:38;15.40;;;5.78;;
80778;SDS011;70170;47.856;10.956;2023-09-30T06:35:04;18.23;;;6.03;;
80778;SDS011;70170;47.856;10.956;2023-09-30T06:37:31;15.65;;;6.10;;
80778;SDS011;70170;47.856;10.956;2023-09-30T06:39:57;16.35;;;7.07;;
80778;SDS011;70170;47.856;10.956;2023-09-30T06:42:22;19.30;;;5.90;;
80778;SDS011;70170;47.856;10.956;2023-09-30T06:44:49;17.50;;;6.18;;
80778;SDS011;70170;47.856;10.956;2023-09-30T06:47:14;17.90;;;6.65;;
80778;SDS011;70170;47.856;10.956;2023-09-30T06:49:39;19.15;;;6.32;;
80778;SDS011;70170;47.856;10.956;2023-09-30T06:52:05;22.17;;;6.53;;
80778;SDS011;70170;47.856;10.956;2023-09-30T06:54:31;18.25;;;6.15;;
80778;SDS011;70170;47.856;10.956;2023-09-30T06:56:56;15.15;;;6.00;;
80778;SDS011;70170;47.856;10.956;2023-09-30T06:59:21;20.40;;;6.28;;
80778;SDS011;70170;47.856;10.956;2023-09-30T07:01:47;15.23;;;5.45;;
80778;SDS011;70170;47.856;10.956;2023-09-30T07:04:12;15.63;;;5.45;;
80778;SDS011;70170;47.856;10.956;2023-09-30T07:06:37;15.70;;;5.70;;
80778;SDS011;70170;47.856;10.956;2023-09-30T07:09:03;12.48;;;5.47;;
80778;SDS011;70170;47.856;10.956;2023-09-30T07:11:29;19.38;;;5.55;;
80778;SDS011;70170;47.856;10.956;2023-09-30T07:13:58;17.67;;;5.70;;
80778;SDS011;70170;47.856;10.956;2023-09-30T07:16:23;15.05;;;5.35;;
80778;SDS011;70170;47.856;10.956;2023-09-30T07:18:49;14.13;;;5.90;;
80778;SDS011;70170;47.856;10.956;2023-09-30T07:21:15;12.20;;;5.53;;
80778;SDS011;70170;47.856;10.956;2023-09-30T07:23:41;14.27;;;5.93;;
80778;SDS011;70170;47.856;10.956;2023-09-30T07:26:06;14.82;;;5.75;;
80778;SDS011;70170;47.856;10.956;2023-09-30T07:28:32;16.38;;;5.38;;
80778;SDS011;70170;47.856;10.956;2023-09-30T07:30:58;12.88;;;5.38;;
80778;SDS011;70170;47.856;10.956;2023-09-30T07:33:23;17.35;;;6.07;;
80778;SDS011;70170;47.856;10.956;2023-09-30T07:35:49;15.65;;;6.30;;
80778;SDS011;70170;47.856;10.956;2023-09-30T07:38:14;20.75;;;7.57;;
80778;SDS011;70170;47.856;10.956;2023-09-30T07:40:40;22.42;;;7.80;;
80778;SDS011;70170;47.856;10.956;2023-09-30T07:43:05;22.73;;;7.28;;
80778;SDS011;70170;47.856;10.956;2023-09-30T07:45:30;21.67;;;8.05;;
80778;SDS011;70170;47.856;10.956;2023-09-30T07:47:56;24.50;;;8.13;;
80778;SDS011;70170;47.856;10.956;2023-09-30T07:50:23;26.30;;;9.02;;
80778;SDS011;70170;47.856;10.956;2023-09-30T07:52:48;28.90;;;9.60;;
80778;SDS011;70170;47.856;10.956;2023-09-30T07:55:14;25.42;;;8.55;;
80778;SDS011;70170;47.856;10.956;2023-09-30T07:57:40;23.73;;;8.40;;
80778;SDS011;70170;47.856;10.956;2023-09-30T08:00:07;23.35;;;8.90;;
80778;SDS011;70170;47.856;10.956;2023-09-30T08:02:34;22.13;;;7.38;;
80778;SDS011;70170;47.856;10.956;2023-09-30T08:04:59;20.58;;;7.55;;
80778;SDS011;70170;47.856;10.956;2023-09-30T08:07:25;21.85;;;7.70;;
80778;SDS011;70170;47.856;10.956;2023-09-30T08:09:51;21.73;;;7.50;;
80778;SDS011;70170;47.856;10.956;2023-09-30T08:12:16;18.40;;;7.38;;
80778;SDS011;70170;47.856;10.956;2023-09-30T08:14:42;22.55;;;8.15;;
80778;SDS011;70170;47.856;10.956;2023-09-30T08:17:09;22.38;;;7.82;;
80778;SDS011;70170;47.856;10.956;2023-09-30T08:19:36;17.55;;;7.32;;
80778;SDS011;70170;47.856;10.956;2023-09-30T08:22:01;27.08;;;8.32;;
80778;SDS011;70170;47.856;10.956;2023-09-30T08:24:28;20.50;;;7.30;;
80778;SDS011;70170;47.856;10.956;2023-09-30T08:26:54;15.60;;;6.10;;
80778;SDS011;70170;47.856;10.956;2023-09-30T08:29:21;14.70;;;6.47;;
80778;SDS011;70170;47.856;10.956;2023-09-30T08:31:47;16.85;;;6.80;;
80778;SDS011;70170;47.856;10.956;2023-09-30T08:34:12;19.27;;;6.70;;
80778;SDS011;70170;47.856;10.956;2023-09-30T08:36:39;24.90;;;7.93;;
80778;SDS011;70170;47.856;10.956;2023-09-30T08:39:05;16.92;;;6.15;;
80778;SDS011;70170;47.856;10.956;2023-09-30T08:41:32;17.92;;;7.85;;
80778;SDS011;70170;47.856;10.956;2023-09-30T08:44:00;19.35;;;7.20;;
80778;SDS011;70170;47.856;10.956;2023-09-30T08:46:31;19.05;;;7.15;;
80778;SDS011;70170;47.856;10.956;2023-09-30T08:49:00;22.55;;;8.13;;
80778;SDS011;70170;47.856;10.956;2023-09-30T08:51:28;21.75;;;7.65;;
80778;SDS011;70170;47.856;10.956;2023-09-30T08:53:54;18.48;;;6.95;;
80778;SDS011;70170;47.856;10.956;2023-09-30T08:56:23;23.33;;;8.05;;
80778;SDS011;70170;47.856;10.956;2023-09-30T08:58:51;22.83;;;7.93;;
80778;SDS011;70170;47.856;10.956;2023-09-30T09:01:18;20.05;;;8.05;;
80778;SDS011;70170;47.856;10.956;2023-09-30T09:03:43;19.33;;;8.20;;
80778;SDS011;70170;47.856;10.956;2023-09-30T09:06:09;23.25;;;8.18;;
80778;SDS011;70170;47.856;10.956;2023-09-30T09:08:34;22.58;;;8.43;;
80778;SDS011;70170;47.856;10.956;2023-09-30T09:11:00;22.95;;;8.45;;
80778;SDS011;70170;47.856;10.956;2023-09-30T09:13:27;27.55;;;7.75;;
80778;SDS011;70170;47.856;10.956;2023-09-30T09:16:07;24.45;;;7.82;;
80778;SDS011;70170;47.856;10.956;2023-09-30T09:18:33;22.23;;;9.07;;
80778;SDS011;70170;47.856;10.956;2023-09-30T09:24:01;24.20;;;9.02;;
80778;SDS011;70170;47.856;10.956;2023-09-30T09:26:27;21.38;;;8.82;;
80778;SDS011;70170;47.856;10.956;2023-09-30T09:29:03;23.00;;;9.07;;
80778;SDS011;70170;47.856;10.956;2023-09-30T09:31:33;22.77;;;8.73;;
80778;SDS011;70170;47.856;10.956;2023-09-30T09:34:00;23.83;;;8.48;;
80778;SDS011;70170;47.856;10.956;2023-09-30T09:36:38;22.20;;;8.45;;
80778;SDS011;70170;47.856;10.956;2023-09-30T09:39:08;22.23;;;8.00;;
80778;SDS011;70170;47.856;10.956;2023-09-30T09:41:50;25.90;;;9.18;;
80778;SDS011;70170;47.856;10.956;2023-09-30T09:44:16;20.65;;;8.27;;
80778;SDS011;70170;47.856;10.956;2023-09-30T09:46:44;21.13;;;9.05;;
80778;SDS011;70170;47.856;10.956;2023-09-30T09:49:11;22.30;;;8.73;;
80778;SDS011;70170;47.856;10.956;2023-09-30T09:51:37;22.00;;;7.93;;
80778;SDS011;70170;47.856;10.956;2023-09-30T09:54:03;22.45;;;8.32;;
80778;SDS011;70170;47.856;10.956;2023-09-30T09:56:32;29.38;;;9.07;;
80778;SDS011;70170;47.856;10.956;2023-09-30T09:58:59;18.95;;;8.02;;
80778;SDS011;70170;47.856;10.956;2023-09-30T10:01:29;22.38;;;7.18;;
80778;SDS011;70170;47.856;10.956;2023-09-30T10:03:55;20.98;;;7.97;;
80778;SDS011;70170;47.856;10.956;2023-09-30T10:06:21;21.15;;;7.90;;
80778;SDS011;70170;47.856;10.956;2023-09-30T10:08:48;23.35;;;8.50;;
80778;SDS011;70170;47.856;10.956;2023-09-30T10:11:17;22.70;;;8.65;;
80778;SDS011;70170;47.856;10.956;2023-09-30T10:13:49;24.00;;;8.77;;
80778;SDS011;70170;47.856;10.956;2023-09-30T10:19:09;21.13;;;8.07;;
80778;SDS011;70170;47.856;10.956;2023-09-30T10:21:35;20.75;;;7.32;;
80778;SDS011;70170;47.856;10.956;2023-09-30T10:29:58;22.10;;;8.88;;
80778;SDS011;70170;47.856;10.956;2023-09-30T10:35:15;17.25;;;7.65;;
80778;SDS011;70170;47.856;10.956;2023-09-30T10:37:42;22.75;;;8.52;;
80778;SDS011;70170;47.856;10.956;2023-09-30T10:40:08;25.30;;;9.00;;
80778;SDS011;70170;47.856;10.956;2023-09-30T10:42:49;23.20;;;8.40;;
80778;SDS011;70170;47.856;10.956;2023-09-30T10:50:58;26.23;;;9.57;;
80778;SDS011;70170;47.856;10.956;2023-09-30T10:53:25;24.88;;;8.25;;
80778;SDS011;70170;47.856;10.956;2023-09-30T10:55:58;26.73;;;8.65;;
80778;SDS011;70170;47.856;10.956;2023-09-30T11:01:33;23.30;;;8.55;;
80778;SDS011;70170;47.856;10.956;2023-09-30T11:03:59;22.15;;;8.60;;
80778;SDS011;70170;47.856;10.956;2023-09-30T11:06:29;25.77;;;9.07;;
80778;SDS011;70170;47.856;10.956;2023-09-30T11:08:56;29.50;;;9.50;;
80778;SDS011;70170;47.856;10.956;2023-09-30T11:14:01;23.08;;;8.25;;
80778;SDS011;70170;47.856;10.956;2023-09-30T11:16:27;22.38;;;8.88;;
80778;SDS011;70170;47.856;10.956;2023-09-30T11:18:53;23.10;;;7.85;;
80778;SDS011;70170;47.856;10.956;2023-09-30T11:21:19;25.08;;;9.13;;
80778;SDS011;70170;47.856;10.956;2023-09-30T11:23:45;23.13;;;7.50;;
80778;SDS011;70170;47.856;10.956;2023-09-30T11:26:10;18.77;;;7.85;;
80778;SDS011;70170;47.856;10.956;2023-09-30T11:28:42;27.55;;;8.93;;
80778;SDS011;70170;47.856;10.956;2023-09-30T11:31:11;25.67;;;8.82;;
80778;SDS011;70170;47.856;10.956;2023-09-30T11:33:49;25.67;;;9.02;;
80778;SDS011;70170;47.856;10.956;2023-09-30T11:36:17;25.17;;;8.88;;
80778;SDS011;70170;47.856;10.956;2023-09-30T11:38:45;24.75;;;8.48;;
80778;SDS011;70170;47.856;10.956;2023-09-30T11:41:12;27.48;;;9.00;;
80778;SDS011;70170;47.856;10.956;2023-09-30T11:43:37;24.23;;;8.95;;
80778;SDS011;70170;47.856;10.956;2023-09-30T11:46:10;21.52;;;8.75;;
80778;SDS011;70170;47.856;10.956;2023-09-30T11:51:06;22.92;;;8.57;;
80778;SDS011;70170;47.856;10.956;2023-09-30T11:53:32;23.75;;;8.73;;
80778;SDS011;70170;47.856;10.956;2023-09-30T11:56:00;26.25;;;10.07;;
80778;SDS011;70170;47.856;10.956;2023-09-30T11:58:30;24.02;;;9.25;;
80778;SDS011;70170;47.856;10.956;2023-09-30T12:00:58;29.45;;;9.73;;
80778;SDS011;70170;47.856;10.956;2023-09-30T12:03:27;28.67;;;10.35;;
80778;SDS011;70170;47.856;10.956;2023-09-30T12:05:53;25.63;;;10.00;;
80778;SDS011;70170;47.856;10.956;2023-09-30T12:08:21;22.25;;;9.32;;
80778;SDS011;70170;47.856;10.956;2023-09-30T12:10:47;32.17;;;9.95;;
80778;SDS011;70170;47.856;10.956;2023-09-30T12:13:13;23.45;;;9.30;;
80778;SDS011;70170;47.856;10.956;2023-09-30T12:15:40;27.80;;;9.88;;
80778;SDS011;70170;47.856;10.956;2023-09-30T12:18:06;25.33;;;9.02;;
80778;SDS011;70170;47.856;10.956;2023-09-30T12:20:31;26.55;;;9.20;;
80778;SDS011;70170;47.856;10.956;2023-09-30T12:22:56;25.15;;;9.40;;
80778;SDS011;70170;47.856;10.956;2023-09-30T12:25:21;23.92;;;9.23;;
80778;SDS011;70170;47.856;10.956;2023-09-30T12:27:48;24.80;;;9.30;;
80778;SDS011;70170;47.856;10.956;2023-09-30T12:30:13;24.63;;;9.70;;
80778;SDS011;70170;47.856;10.956;2023-09-30T12:32:39;23.27;;;9.60;;
80778;SDS011;70170;47.856;10.956;2023-09-30T12:35:05;25.08;;;9.93;;
80778;SDS011;70170;47.856;10.956;2023-09-30T12:37:31;23.45;;;9.45;;
80778;SDS011;70170;47.856;10.956;2023-09-30T12:39:57;21.63;;;9.25;;
80778;SDS011;70170;47.856;10.956;2023-09-30T12:42:23;23.23;;;9.48;;
80778;SDS011;70170;47.856;10.956;2023-09-30T12:44:48;21.40;;;8.85;;
80778;SDS011;70170;47.856;10.956;2023-09-30T12:47:13;26.67;;;8.90;;
80778;SDS011;70170;47.856;10.956;2023-09-30T12:49:39;21.85;;;8.90;;
80778;SDS011;70170;47.856;10.956;2023-09-30T12:52:04;22.73;;;9.10;;
80778;SDS011;70170;47.856;10.956;2023-09-30T12:54:29;20.20;;;9.00;;
80778;SDS011;70170;47.856;10.956;2023-09-30T12:56:56;21.85;;;8.80;;
80778;SDS011;70170;47.856;10.956;2023-09-30T12:59:21;22.60;;;9.23;;
80778;SDS011;70170;47.856;10.956;2023-09-30T13:01:50;25.23;;;9.38;;
80778;SDS011;70170;47.856;10.956;2023-09-30T13:04:15;19.95;;;8.80;;
80778;SDS011;70170;47.856;10.956;2023-09-30T13:06:41;22.52;;;8.50;;
80778;SDS011;70170;47.856;10.956;2023-09-30T13:09:06;22.98;;;8.63;;
80778;SDS011;70170;47.856;10.956;2023-09-30T13:11:33;22.77;;;8.80;;
80778;SDS011;70170;47.856;10.956;2023-09-30T13:13:59;24.75;;;8.52;;
80778;SDS011;70170;47.856;10.956;2023-09-30T13:16:24;28.13;;;8.95;;
80778;SDS011;70170;47.856;10.956;2023-09-30T13:18:50;23.38;;;8.98;;
80778;SDS011;70170;47.856;10.956;2023-09-30T13:21:17;22.73;;;8.85;;
80778;SDS011;70170;47.856;10.956;2023-09-30T13:23:42;22.38;;;8.05;;
80778;SDS011;70170;47.856;10.956;2023-09-30T13:26:08;21.88;;;8.40;;
80778;SDS011;70170;47.856;10.956;2023-09-30T13:28:33;27.80;;;9.05;;
80778;SDS011;70170;47.856;10.956;2023-09-30T13:30:58;23.85;;;9.45;;
80778;SDS011;70170;47.856;10.956;2023-09-30T13:33:23;21.40;;;8.55;;
80778;SDS011;70170;47.856;10.956;2023-09-30T13:35:49;19.45;;;9.10;;
80778;SDS011;70170;47.856;10.956;2023-09-30T13:38:14;18.95;;;8.02;;
80778;SDS011;70170;47.856;10.956;2023-09-30T13:40:41;25.98;;;8.77;;
80778;SDS011;70170;47.856;10.956;2023-09-30T13:43:06;25.60;;;9.40;;
80778;SDS011;70170;47.856;10.956;2023-09-30T13:45:31;22.27;;;8.73;;
80778;SDS011;70170;47.856;10.956;2023-09-30T13:47:57;21.80;;;8.40;;
80778;SDS011;70170;47.856;10.956;2023-09-30T13:50:22;24.30;;;9.18;;
80778;SDS011;70170;47.856;10.956;2023-09-30T13:52:47;22.80;;;9.07;;
80778;SDS011;70170;47.856;10.956;2023-09-30T13:55:13;24.02;;;8.68;;
80778;SDS011;70170;47.856;10.956;2023-09-30T13:57:44;26.00;;;9.18;;
80778;SDS011;70170;47.856;10.956;2023-09-30T14:00:13;21.70;;;8.50;;
80778;SDS011;70170;47.856;10.956;2023-09-30T14:02:39;22.35;;;8.90;;
80778;SDS011;70170;47.856;10.956;2023-09-30T14:05:04;19.35;;;7.70;;
80778;SDS011;70170;47.856;10.956;2023-09-30T14:07:32;22.20;;;8.73;;
80778;SDS011;70170;47.856;10.956;2023-09-30T14:09:58;21.23;;;7.90;;
80778;SDS011;70170;47.856;10.956;2023-09-30T14:12:23;24.00;;;8.75;;
80778;SDS011;70170;47.856;10.956;2023-09-30T14:14:48;22.33;;;8.45;;
80778;SDS011;70170;47.856;10.956;2023-09-30T14:17:16;22.33;;;8.13;;
80778;SDS011;70170;47.856;10.956;2023-09-30T14:19:42;21.00;;;8.40;;
80778;SDS011;70170;47.856;10.956;2023-09-30T14:22:07;22.27;;;8.27;;
80778;SDS011;70170;47.856;10.956;2023-09-30T14:24:33;19.85;;;8.52;;
80778;SDS011;70170;47.856;10.956;2023-09-30T14:27:00;16.88;;;7.07;;
80778;SDS011;70170;47.856;10.956;2023-09-30T14:29:25;20.30;;;8.10;;
80778;SDS011;70170;47.856;10.956;2023-09-30T14:31:50;19.90;;;7.57;;
80778;SDS011;70170;47.856;10.956;2023-09-30T14:34:16;25.00;;;8.35;;
80778;SDS011;70170;47.856;10.956;2023-09-30T14:36:42;24.13;;;8.18;;
80778;SDS011;70170;47.856;10.956;2023-09-30T14:39:07;22.60;;;9.02;;
80778;SDS011;70170;47.856;10.956;2023-09-30T14:41:33;20.90;;;8.07;;
80778;SDS011;70170;47.856;10.956;2023-09-30T14:43:59;20.98;;;7.38;;
80778;SDS011;70170;47.856;10.956;2023-09-30T14:46:25;24.02;;;8.05;;